createdAt,value
2023-05-09T00:00:15.687Z,62.85
2023-05-09T00:01:15.685Z,62.04
2023-05-09T00:02:15.715Z,62.45
2023-05-09T00:03:15.701Z,62.35
2023-05-09T00:04:15.684Z,63.40
2023-05-09T00:05:15.925Z,63.20
2023-05-09T00:06:15.677Z,63.09
2023-05-09T00:07:15.671Z,62.88
2023-05-09T00:08:15.709Z,63.40
2023-05-09T00:09:15.612Z,63.70
2023-05-09T00:10:15.622Z,63.20
2023-05-09T00:11:15.609Z,63.20
2023-05-09T00:12:15.588Z,63.29
2023-05-09T00:13:15.609Z,63.29
2023-05-09T00:14:15.573Z,62.99
2023-05-09T00:15:15.736Z,63.40
2023-05-09T00:16:15.567Z,63.40
2023-05-09T00:17:15.550Z,63.60
2023-05-09T00:18:15.541Z,63.60
2023-05-09T00:19:15.531Z,64.14
2023-05-09T00:20:15.538Z,63.50
2023-05-09T00:21:15.528Z,64.22
2023-05-09T00:22:15.506Z,64.86
2023-05-09T00:23:15.494Z,64.35
2023-05-09T00:24:15.572Z,64.25
2023-05-09T00:25:15.621Z,64.12
2023-05-09T00:26:15.459Z,65.04
2023-05-09T00:27:15.471Z,64.73
2023-05-09T00:28:15.455Z,64.76
2023-05-09T00:29:15.445Z,65.04
2023-05-09T00:30:15.445Z,64.65
2023-05-09T00:31:15.431Z,64.76
2023-05-09T00:32:15.506Z,64.53
2023-05-09T00:33:15.422Z,64.65
2023-05-09T00:34:15.406Z,64.53
2023-05-09T00:35:15.569Z,63.94
2023-05-09T00:36:15.387Z,65.07
2023-05-09T00:37:15.385Z,63.84
2023-05-09T00:38:15.367Z,64.86
2023-05-09T00:39:15.359Z,65.14
2023-05-09T00:40:15.442Z,64.76
2023-05-09T00:41:15.352Z,64.65
2023-05-09T00:42:15.343Z,64.97
2023-05-09T00:43:15.324Z,64.65
2023-05-09T00:44:15.316Z,64.86
2023-05-09T00:45:15.440Z,64.86
2023-05-09T00:46:15.323Z,65.68
2023-05-09T00:47:15.301Z,65.17
2023-05-09T00:48:15.288Z,65.07
2023-05-09T00:49:15.276Z,65.07
2023-05-09T00:50:15.291Z,65.17
2023-05-09T00:51:15.279Z,65.48
2023-05-09T00:52:15.261Z,65.07
2023-05-09T00:53:15.243Z,65.61
2023-05-09T00:54:15.229Z,65.71
2023-05-09T00:55:15.403Z,65.10
2023-05-09T00:56:15.301Z,65.68
2023-05-09T00:57:15.204Z,65.41
2023-05-09T00:58:15.203Z,65.51
2023-05-09T00:59:16.960Z,65.51
2023-05-09T01:00:15.187Z,65.30
2023-05-09T01:01:15.224Z,65.30
2023-05-09T01:02:15.190Z,66.22
2023-05-09T01:03:15.219Z,65.44
2023-05-09T01:04:15.157Z,65.54
2023-05-09T01:05:15.515Z,65.00
2023-05-09T01:06:15.127Z,65.41
2023-05-09T01:07:15.125Z,65.10
2023-05-09T01:08:15.112Z,64.89
2023-05-09T01:09:15.104Z,65.00
2023-05-09T01:10:15.093Z,65.51
2023-05-09T01:11:15.142Z,65.00
2023-05-09T01:12:15.162Z,65.30
2023-05-09T01:13:15.091Z,65.41
2023-05-09T01:14:15.058Z,65.61
2023-05-09T01:15:15.262Z,65.71
2023-05-09T01:16:15.085Z,65.23
2023-05-09T01:17:15.032Z,65.33
2023-05-09T01:18:15.099Z,65.30
2023-05-09T01:19:15.025Z,65.64
2023-05-09T01:20:15.015Z,65.64
2023-05-09T01:21:15.005Z,65.54
2023-05-09T01:22:14.991Z,65.20
2023-05-09T01:23:14.989Z,65.03
2023-05-09T01:24:14.971Z,65.33
2023-05-09T01:25:15.114Z,65.12
2023-05-09T01:26:14.960Z,65.74
2023-05-09T01:27:14.949Z,65.64
2023-05-09T01:28:15.027Z,65.23
2023-05-09T01:29:14.936Z,65.44
2023-05-09T01:30:14.932Z,65.44
2023-05-09T01:31:14.926Z,64.79
2023-05-09T01:32:14.905Z,65.00
2023-05-09T01:33:14.897Z,64.92
2023-05-09T01:34:14.905Z,63.90
2023-05-09T01:35:15.057Z,64.69
2023-05-09T01:36:14.875Z,64.89
2023-05-09T01:37:14.860Z,64.79
2023-05-09T01:38:14.850Z,64.61
2023-05-09T01:39:14.857Z,65.41
2023-05-09T01:40:14.834Z,65.03
2023-05-09T01:41:14.825Z,65.12
2023-05-09T01:42:14.817Z,64.92
2023-05-09T01:43:14.810Z,65.00
2023-05-09T01:44:14.941Z,65.03
2023-05-09T01:45:15.079Z,65.03
2023-05-09T01:46:14.824Z,65.03
2023-05-09T01:47:14.773Z,64.61
2023-05-09T01:48:14.762Z,64.61
2023-05-09T01:49:14.764Z,64.51
2023-05-09T01:50:14.745Z,64.00
2023-05-09T01:51:14.776Z,64.31
2023-05-09T01:52:14.731Z,63.79
2023-05-09T01:53:14.717Z,63.49
2023-05-09T01:54:14.711Z,63.79
2023-05-09T01:55:14.956Z,63.79
2023-05-09T01:56:14.692Z,63.69
2023-05-09T01:57:14.684Z,64.51
2023-05-09T01:58:14.675Z,64.41
2023-05-09T01:59:14.666Z,64.03
2023-05-09T02:00:14.750Z,63.82
2023-05-09T02:01:14.688Z,63.90
2023-05-09T02:02:14.715Z,63.69
2023-05-09T02:03:14.672Z,62.98
2023-05-09T02:04:14.622Z,63.59
2023-05-09T02:05:14.802Z,63.18
2023-05-09T02:06:14.604Z,63.18
2023-05-09T02:07:14.596Z,62.46
2023-05-09T02:08:14.589Z,62.26
2023-05-09T02:09:14.578Z,61.85
2023-05-09T02:10:14.580Z,61.44
2023-05-09T02:11:14.588Z,61.54
2023-05-09T02:12:14.577Z,61.85
2023-05-09T02:13:14.617Z,61.74
2023-05-09T02:14:14.536Z,61.64
2023-05-09T02:15:14.748Z,61.13
2023-05-09T02:16:14.641Z,61.44
2023-05-09T02:17:14.516Z,61.54
2023-05-09T02:18:14.502Z,61.13
2023-05-09T02:19:14.487Z,60.82
2023-05-09T02:20:14.479Z,61.23
2023-05-09T02:21:14.576Z,61.85
2023-05-09T02:22:14.462Z,60.51
2023-05-09T02:23:14.453Z,60.41
2023-05-09T02:24:14.445Z,60.72
2023-05-09T02:25:14.631Z,60.82
2023-05-09T02:26:14.476Z,60.85
2023-05-09T02:27:14.429Z,60.61
2023-05-09T02:28:14.405Z,61.33
2023-05-09T02:29:14.400Z,60.82
2023-05-09T02:30:14.391Z,61.13
2023-05-09T02:31:14.414Z,61.74
2023-05-09T02:32:14.470Z,60.75
2023-05-09T02:33:14.377Z,60.41
2023-05-09T02:34:14.353Z,60.61
2023-05-09T02:35:14.515Z,60.95
2023-05-09T02:36:14.340Z,60.92
2023-05-09T02:37:14.330Z,60.85
2023-05-09T02:38:14.338Z,60.44
2023-05-09T02:39:14.311Z,59.89
2023-05-09T02:40:14.303Z,60.54
2023-05-09T02:41:14.297Z,60.41
2023-05-09T02:42:14.290Z,60.00
2023-05-09T02:43:14.271Z,60.31
2023-05-09T02:44:14.266Z,61.16
2023-05-09T02:45:14.449Z,61.16
2023-05-09T02:46:14.262Z,60.03
2023-05-09T02:47:14.236Z,60.44
2023-05-09T02:48:14.331Z,59.62
2023-05-09T02:49:26.766Z,60.10
2023-05-09T02:50:14.218Z,60.41
2023-05-09T02:51:14.217Z,59.62
2023-05-09T02:52:14.195Z,59.59
2023-05-09T02:53:14.185Z,60.00
2023-05-09T02:54:14.176Z,59.69
2023-05-09T02:55:14.388Z,59.92
2023-05-09T02:56:14.155Z,60.10
2023-05-09T02:57:14.152Z,59.72
2023-05-09T02:58:15.146Z,59.89
2023-05-09T02:59:14.269Z,58.77
2023-05-09T03:00:14.124Z,59.28
2023-05-09T03:01:14.152Z,58.87
2023-05-09T03:02:14.104Z,59.28
2023-05-09T03:03:14.194Z,58.97
2023-05-09T03:04:14.184Z,59.08
2023-05-09T03:05:14.232Z,59.69
2023-05-09T03:06:14.067Z,59.69
2023-05-09T03:07:14.057Z,59.48
2023-05-09T03:08:14.048Z,59.72
2023-05-09T03:09:14.040Z,59.89
2023-05-09T03:10:14.054Z,58.67
2023-05-09T03:11:14.025Z,59.08
2023-05-09T03:12:14.022Z,59.18
2023-05-09T03:13:14.010Z,59.28
2023-05-09T03:14:13.995Z,58.77
2023-05-09T03:15:14.277Z,59.59
2023-05-09T03:16:13.995Z,59.38
2023-05-09T03:17:13.971Z,59.00
2023-05-09T03:18:13.952Z,59.69
2023-05-09T03:19:13.949Z,59.69
2023-05-09T03:20:14.027Z,60.13
2023-05-09T03:21:13.934Z,59.80
2023-05-09T03:22:13.922Z,59.82
2023-05-09T03:23:13.916Z,59.52
2023-05-09T03:24:13.916Z,60.03
2023-05-09T03:25:14.095Z,59.82
2023-05-09T03:26:13.889Z,59.80
2023-05-09T03:27:13.877Z,60.13
2023-05-09T03:28:13.868Z,60.10
2023-05-09T03:29:13.862Z,59.92
2023-05-09T03:30:13.938Z,59.59
2023-05-09T03:31:13.878Z,59.69
2023-05-09T03:32:15.120Z,59.80
2023-05-09T03:33:13.826Z,60.64
2023-05-09T03:34:13.819Z,60.23
2023-05-09T03:35:13.939Z,60.03
2023-05-09T03:36:13.882Z,60.13
2023-05-09T03:37:13.789Z,60.44
2023-05-09T03:38:13.780Z,60.54
2023-05-09T03:39:13.769Z,60.95
2023-05-09T03:40:13.763Z,61.16
2023-05-09T03:41:13.752Z,60.03
2023-05-09T03:42:13.739Z,60.03
2023-05-09T03:43:13.739Z,60.75
2023-05-09T03:44:13.728Z,60.10
2023-05-09T03:45:13.963Z,60.54
2023-05-09T03:46:13.745Z,60.31
2023-05-09T03:47:13.699Z,60.72
2023-05-09T03:48:13.732Z,60.41
2023-05-09T03:49:13.685Z,60.10
2023-05-09T03:50:13.674Z,60.92
2023-05-09T03:51:13.706Z,61.05
2023-05-09T03:52:13.735Z,60.10
2023-05-09T03:53:13.644Z,59.89
2023-05-09T03:54:13.637Z,60.31
2023-05-09T03:55:13.799Z,60.31
2023-05-09T03:56:13.614Z,60.82
2023-05-09T03:57:13.606Z,60.85
2023-05-09T03:58:13.600Z,60.31
2023-05-09T03:59:13.590Z,60.21
2023-05-09T04:00:13.577Z,60.10
2023-05-09T04:01:13.572Z,60.41
2023-05-09T04:02:13.622Z,60.41
2023-05-09T04:03:13.607Z,60.82
2023-05-09T04:04:13.737Z,60.00
2023-05-09T04:05:13.776Z,59.59
2023-05-09T04:06:13.538Z,59.89
2023-05-09T04:07:13.528Z,60.31
2023-05-09T04:08:13.594Z,60.82
2023-05-09T04:09:13.504Z,60.28
2023-05-09T04:10:13.504Z,60.51
2023-05-09T04:11:13.488Z,59.69
2023-05-09T04:12:13.476Z,60.17
2023-05-09T04:13:13.547Z,59.77
2023-05-09T04:14:13.456Z,60.17
2023-05-09T04:15:13.904Z,60.17
2023-05-09T04:16:13.541Z,59.87
2023-05-09T04:17:13.431Z,59.56
2023-05-09T04:18:13.422Z,59.56
2023-05-09T04:19:13.416Z,60.58
2023-05-09T04:20:13.420Z,59.53
2023-05-09T04:21:13.403Z,59.97
2023-05-09T04:22:13.386Z,59.53
2023-05-09T04:23:13.384Z,59.12
2023-05-09T04:24:13.369Z,59.74
2023-05-09T04:25:13.565Z,59.53
2023-05-09T04:26:13.353Z,59.53
2023-05-09T04:27:13.337Z,59.64
2023-05-09T04:28:13.367Z,58.81
2023-05-09T04:29:13.330Z,58.79
2023-05-09T04:30:13.317Z,58.69
2023-05-09T04:31:13.369Z,58.79
2023-05-09T04:32:13.354Z,59.17
2023-05-09T04:33:13.298Z,57.38
2023-05-09T04:34:13.281Z,56.63
2023-05-09T04:35:13.616Z,54.92
2023-05-09T04:36:13.274Z,53.85
2023-05-09T04:37:13.267Z,52.37
2023-05-09T04:38:13.247Z,51.61
2023-05-09T04:39:13.253Z,50.67
2023-05-09T04:40:13.313Z,49.73
2023-05-09T04:41:13.227Z,49.84
2023-05-09T04:42:13.231Z,50.52
2023-05-09T04:43:13.209Z,48.16
2023-05-09T04:44:13.199Z,47.63
2023-05-09T04:45:13.303Z,48.24
2023-05-09T04:46:13.190Z,47.74
2023-05-09T04:47:13.176Z,47.45
2023-05-09T04:48:13.175Z,47.53
2023-05-09T04:49:13.165Z,47.43
2023-05-09T04:50:13.157Z,47.22
2023-05-09T04:51:13.149Z,47.91
2023-05-09T04:52:13.142Z,46.37
2023-05-09T04:53:13.131Z,46.35
2023-05-09T04:54:13.132Z,46.12
2023-05-09T04:55:13.266Z,45.62
2023-05-09T04:56:13.193Z,44.89
2023-05-09T04:57:17.916Z,45.19
2023-05-09T04:58:13.204Z,44.66
2023-05-09T04:59:13.093Z,44.24
2023-05-09T05:00:13.111Z,43.61
2023-05-09T05:01:13.126Z,43.08
2023-05-09T05:02:13.132Z,42.07
2023-05-09T05:03:13.084Z,42.76
2023-05-09T05:04:13.093Z,41.63
2023-05-09T05:05:13.075Z,41.02
2023-05-09T05:06:13.056Z,42.55
2023-05-09T05:07:13.046Z,42.58
2023-05-09T05:08:13.040Z,43.16
2023-05-09T05:09:13.028Z,42.46
2023-05-09T05:10:13.021Z,42.78
2023-05-09T05:11:13.012Z,42.54
2023-05-09T05:12:13.266Z,42.11
2023-05-09T05:13:13.051Z,41.41
2023-05-09T05:14:12.993Z,42.18
2023-05-09T05:15:13.131Z,39.53
2023-05-09T05:16:13.016Z,40.44
2023-05-09T05:17:12.979Z,40.03
2023-05-09T05:18:12.980Z,40.74
2023-05-09T05:19:12.971Z,39.92
2023-05-09T05:20:12.985Z,41.14
2023-05-09T05:21:12.956Z,41.02
2023-05-09T05:22:12.949Z,39.39
2023-05-09T05:23:12.947Z,38.67
2023-05-09T05:24:12.938Z,38.10
2023-05-09T05:25:13.144Z,39.81
2023-05-09T05:26:12.930Z,41.71
2023-05-09T05:27:12.951Z,38.89
2023-05-09T05:28:13.004Z,38.77
2023-05-09T05:29:12.919Z,39.76
2023-05-09T05:30:12.909Z,38.35
2023-05-09T05:31:12.919Z,38.69
2023-05-09T05:32:12.899Z,39.90
2023-05-09T05:33:12.896Z,38.57
2023-05-09T05:34:12.888Z,38.89
2023-05-09T05:35:13.095Z,39.21
2023-05-09T05:36:12.879Z,39.41
2023-05-09T05:37:12.885Z,38.22
2023-05-09T05:38:12.870Z,38.64
2023-05-09T05:39:12.862Z,39.97
2023-05-09T05:40:12.883Z,40.80
2023-05-09T05:41:12.862Z,40.17
2023-05-09T05:42:12.854Z,40.52
2023-05-09T05:43:12.850Z,40.32
2023-05-09T05:44:12.935Z,39.21
2023-05-09T05:45:12.965Z,39.21
2023-05-09T05:46:12.922Z,38.69
2023-05-09T05:47:12.837Z,38.67
2023-05-09T05:48:12.838Z,38.65
2023-05-09T05:49:12.820Z,37.93
2023-05-09T05:50:12.833Z,37.71
2023-05-09T05:51:12.813Z,37.61
2023-05-09T05:52:12.807Z,37.49
2023-05-09T05:53:12.818Z,36.99
2023-05-09T05:54:12.812Z,37.65
2023-05-09T05:55:13.027Z,35.95
2023-05-09T05:56:12.798Z,36.85
2023-05-09T05:57:12.792Z,35.95
2023-05-09T05:58:12.791Z,35.71
2023-05-09T05:59:13.594Z,38.47
2023-05-09T06:00:12.880Z,39.39
2023-05-09T06:01:12.777Z,38.67
2023-05-09T06:02:12.830Z,39.61
2023-05-09T06:03:12.839Z,41.24
2023-05-09T06:04:12.814Z,41.52
2023-05-09T06:05:12.932Z,40.39
2023-05-09T06:06:12.768Z,40.05
2023-05-09T06:07:12.765Z,38.82
2023-05-09T06:08:12.757Z,38.30
2023-05-09T06:09:12.753Z,38.50
2023-05-09T06:10:12.777Z,38.30
2023-05-09T06:11:12.761Z,38.02
2023-05-09T06:12:12.756Z,39.33
2023-05-09T06:13:12.761Z,38.48
2023-05-09T06:14:12.751Z,36.55
2023-05-09T06:15:13.109Z,37.85
2023-05-09T06:16:19.235Z,37.01
2023-05-09T06:17:12.803Z,35.48
2023-05-09T06:18:12.774Z,35.90
2023-05-09T06:19:12.728Z,37.12
2023-05-09T06:20:12.725Z,37.54
2023-05-09T06:21:12.737Z,38.62
2023-05-09T06:22:12.723Z,41.10
2023-05-09T06:23:12.723Z,41.10
2023-05-09T06:24:23.427Z,40.68
2023-05-09T06:25:12.970Z,41.36
2023-05-09T06:26:12.715Z,40.05
2023-05-09T06:27:12.711Z,39.50
2023-05-09T06:28:12.718Z,41.44
2023-05-09T06:29:12.707Z,41.50
2023-05-09T06:30:24.509Z,41.10
2023-05-09T06:31:12.719Z,39.17
2023-05-09T06:32:12.789Z,40.28
2023-05-09T06:33:12.703Z,40.23
2023-05-09T06:34:12.709Z,40.84
2023-05-09T06:35:12.843Z,38.96
2023-05-09T06:36:12.701Z,40.09
2023-05-09T06:37:12.700Z,40.98
2023-05-09T06:38:12.698Z,41.24
2023-05-09T06:39:12.693Z,40.53
2023-05-09T06:40:12.697Z,41.46
2023-05-09T06:41:12.694Z,41.32
2023-05-09T06:42:12.692Z,39.35
2023-05-09T06:43:12.689Z,39.11
2023-05-09T06:44:12.699Z,38.45
2023-05-09T06:45:12.877Z,37.51
2023-05-09T06:46:12.739Z,35.61
2023-05-09T06:47:12.685Z,37.24
2023-05-09T06:48:12.767Z,37.91
2023-05-09T06:49:12.692Z,36.90
2023-05-09T06:50:12.684Z,36.89
2023-05-09T06:51:12.682Z,36.33
2023-05-09T06:52:12.678Z,39.65
2023-05-09T06:53:12.679Z,39.23
2023-05-09T06:54:12.682Z,38.22
2023-05-09T06:55:12.747Z,38.73
2023-05-09T06:56:12.682Z,38.59
2023-05-09T06:57:12.678Z,37.71
2023-05-09T06:58:12.681Z,37.78
2023-05-09T06:59:12.671Z,37.66
2023-05-09T07:00:12.686Z,37.66
2023-05-09T07:01:12.697Z,38.44
2023-05-09T07:02:12.675Z,40.34
2023-05-09T07:03:12.686Z,38.97
2023-05-09T07:04:12.779Z,36.32
2023-05-09T07:05:12.810Z,36.35
2023-05-09T07:06:12.665Z,37.40
2023-05-09T07:07:12.749Z,41.61
2023-05-09T07:08:12.669Z,39.37
2023-05-09T07:09:12.668Z,39.01
2023-05-09T07:10:12.666Z,38.54
2023-05-09T07:11:12.742Z,38.48
2023-05-09T07:12:12.672Z,37.63
2023-05-09T07:13:12.694Z,36.70
2023-05-09T07:14:12.678Z,37.10
2023-05-09T07:15:12.784Z,36.79
2023-05-09T07:16:12.701Z,34.42
2023-05-09T07:17:22.828Z,37.51
2023-05-09T07:18:12.770Z,38.64
2023-05-09T07:19:12.667Z,39.01
2023-05-09T07:20:12.751Z,38.07
2023-05-09T07:21:12.674Z,37.78
2023-05-09T07:22:12.753Z,38.50
2023-05-09T07:23:12.668Z,37.88
2023-05-09T07:24:12.665Z,37.38
2023-05-09T07:25:12.766Z,37.58
2023-05-09T07:26:12.666Z,38.15
2023-05-09T07:27:12.685Z,37.69
2023-05-09T07:28:12.691Z,36.23
2023-05-09T07:29:12.668Z,34.42
2023-05-09T07:30:12.857Z,36.33
2023-05-09T07:31:12.716Z,34.12
2023-05-09T07:32:12.752Z,34.36
2023-05-09T07:33:12.744Z,35.36
2023-05-09T07:34:12.666Z,34.44
2023-05-09T07:35:12.935Z,33.39
2023-05-09T07:36:13.044Z,33.47
2023-05-09T07:37:13.749Z,32.14
2023-05-09T07:38:12.669Z,31.74
2023-05-09T07:39:12.666Z,31.44
2023-05-09T07:40:12.794Z,32.65
2023-05-09T07:41:12.667Z,34.21
2023-05-09T07:42:12.674Z,34.84
2023-05-09T07:43:12.680Z,34.22
2023-05-09T07:44:12.679Z,33.39
2023-05-09T07:45:12.796Z,32.35
2023-05-09T07:46:12.706Z,32.87
2023-05-09T07:47:12.669Z,32.44
2023-05-09T07:48:12.696Z,33.23
2023-05-09T07:49:12.678Z,32.01
2023-05-09T07:50:12.675Z,31.28
2023-05-09T07:51:12.674Z,30.96
2023-05-09T07:52:12.753Z,29.97
2023-05-09T07:53:12.675Z,31.07
2023-05-09T07:54:12.681Z,30.69
2023-05-09T07:55:12.721Z,30.60
2023-05-09T07:56:12.677Z,31.71
2023-05-09T07:57:12.691Z,31.02
2023-05-09T07:58:12.681Z,31.94
2023-05-09T07:59:12.703Z,32.04
2023-05-09T08:00:12.681Z,30.02
2023-05-09T08:01:12.689Z,31.84
2023-05-09T08:02:12.708Z,31.30
2023-05-09T08:03:12.772Z,35.13
2023-05-09T08:04:12.998Z,34.21
2023-05-09T08:05:12.819Z,32.36
2023-05-09T08:06:12.702Z,35.18
2023-05-09T08:07:12.700Z,34.44
2023-05-09T08:08:12.780Z,34.94
2023-05-09T08:09:12.735Z,34.27
2023-05-09T08:10:12.708Z,33.25
2023-05-09T08:11:12.700Z,35.46
2023-05-09T08:12:12.706Z,34.42
2023-05-09T08:13:12.750Z,33.71
2023-05-09T08:14:13.193Z,31.40
2023-05-09T08:15:12.905Z,32.89
2023-05-09T08:16:12.759Z,32.29
2023-05-09T08:17:12.718Z,33.17
2023-05-09T08:18:12.717Z,31.34
2023-05-09T08:19:12.760Z,31.35
2023-05-09T08:20:12.717Z,31.85
2023-05-09T08:21:12.718Z,30.94
2023-05-09T08:22:12.725Z,32.29
2023-05-09T08:23:12.719Z,32.21
2023-05-09T08:24:12.815Z,36.71
2023-05-09T08:25:12.886Z,38.44
2023-05-09T08:26:12.717Z,37.13
2023-05-09T08:27:12.723Z,37.51
2023-05-09T08:28:12.720Z,37.09
2023-05-09T08:29:12.730Z,36.07
2023-05-09T08:30:12.721Z,36.39
2023-05-09T08:31:12.775Z,37.49
2023-05-09T08:32:12.714Z,37.41
2023-05-09T08:33:12.779Z,36.42
2023-05-09T08:34:12.719Z,38.96
2023-05-09T08:35:12.930Z,37.35
2023-05-09T08:36:12.717Z,38.48
2023-05-09T08:37:15.072Z,37.16
2023-05-09T08:38:12.707Z,37.38
2023-05-09T08:39:12.702Z,37.79
2023-05-09T08:40:12.994Z,37.77
2023-05-09T08:41:12.700Z,37.89
2023-05-09T08:42:12.702Z,38.84
2023-05-09T08:43:12.700Z,39.54
2023-05-09T08:44:12.701Z,41.06
2023-05-09T08:45:12.687Z,39.64
2023-05-09T08:46:12.725Z,40.44
2023-05-09T08:47:12.682Z,39.02
2023-05-09T08:48:12.758Z,39.42
2023-05-09T08:49:12.731Z,38.61
2023-05-09T08:50:12.743Z,38.63
2023-05-09T08:51:12.668Z,40.03
2023-05-09T08:52:12.665Z,39.08
2023-05-09T08:53:12.665Z,38.66
2023-05-09T08:54:12.665Z,37.43
2023-05-09T08:55:12.710Z,37.31
2023-05-09T08:56:12.787Z,35.66
2023-05-09T08:57:12.657Z,34.72
2023-05-09T08:58:12.652Z,34.09
2023-05-09T08:59:12.683Z,35.82
2023-05-09T09:00:12.695Z,33.07
2023-05-09T09:01:12.681Z,31.96
2023-05-09T09:02:12.756Z,34.44
2023-05-09T09:03:12.686Z,32.73
2023-05-09T09:04:12.651Z,34.26
2023-05-09T09:05:23.988Z,33.17
2023-05-09T09:06:12.640Z,34.11
2023-05-09T09:07:12.636Z,33.60
2023-05-09T09:08:12.644Z,34.72
2023-05-09T09:09:12.635Z,36.69
2023-05-09T09:10:12.854Z,37.21
2023-05-09T09:11:12.633Z,36.81
2023-05-09T09:12:12.726Z,38.96
2023-05-09T09:13:12.703Z,38.06
2023-05-09T09:14:12.619Z,38.49
2023-05-09T09:15:12.615Z,39.20
2023-05-09T09:16:12.627Z,40.64
2023-05-09T09:17:12.614Z,39.52
2023-05-09T09:18:12.667Z,39.83
2023-05-09T09:19:12.623Z,40.84
2023-05-09T09:20:12.744Z,39.83
2023-05-09T09:21:12.602Z,39.12
2023-05-09T09:22:12.595Z,40.64
2023-05-09T09:23:12.592Z,39.00
2023-05-09T09:24:12.592Z,39.52
2023-05-09T09:25:12.585Z,39.14
2023-05-09T09:26:12.585Z,39.15
2023-05-09T09:27:12.582Z,40.17
2023-05-09T09:28:12.678Z,39.64
2023-05-09T09:29:12.572Z,38.53
2023-05-09T09:30:12.645Z,39.44
2023-05-09T09:31:12.577Z,40.05
2023-05-09T09:32:12.681Z,40.66
2023-05-09T09:33:12.655Z,39.44
2023-05-09T09:34:12.551Z,41.36
2023-05-09T09:35:12.552Z,42.05
2023-05-09T09:36:12.551Z,41.35
2023-05-09T09:37:12.537Z,39.34
2023-05-09T09:38:12.535Z,40.03
2023-05-09T09:39:12.528Z,39.14
2023-05-09T09:40:12.678Z,39.73
2023-05-09T09:41:12.531Z,39.62
2023-05-09T09:42:12.518Z,40.23
2023-05-09T09:43:12.518Z,41.55
2023-05-09T09:44:12.602Z,39.70
2023-05-09T09:45:12.504Z,40.11
2023-05-09T09:46:12.555Z,39.20
2023-05-09T09:47:12.503Z,38.49
2023-05-09T09:48:12.567Z,38.59
2023-05-09T09:49:12.490Z,39.10
2023-05-09T09:50:12.580Z,40.11
2023-05-09T09:51:12.485Z,39.81
2023-05-09T09:52:12.480Z,38.59
2023-05-09T09:53:12.473Z,38.80
2023-05-09T09:54:12.471Z,39.00
2023-05-09T09:55:12.458Z,40.19
2023-05-09T09:56:12.465Z,38.68
2023-05-09T09:57:12.456Z,38.68
2023-05-09T09:58:12.459Z,38.48
2023-05-09T09:59:12.458Z,38.98
2023-05-09T10:00:12.693Z,38.86
2023-05-09T10:01:12.479Z,37.16
2023-05-09T10:02:12.442Z,37.97
2023-05-09T10:03:12.595Z,37.97
2023-05-09T10:04:12.499Z,38.01
2023-05-09T10:05:12.435Z,38.09
2023-05-09T10:06:12.454Z,41.63
2023-05-09T10:07:14.933Z,41.61
2023-05-09T10:08:12.403Z,41.00
2023-05-09T10:09:12.399Z,39.37
2023-05-09T10:10:12.442Z,38.26
2023-05-09T10:11:12.393Z,39.65
2023-05-09T10:12:12.396Z,37.15
2023-05-09T10:13:12.493Z,39.06
2023-05-09T10:14:12.378Z,37.43
2023-05-09T10:15:12.415Z,37.84
2023-05-09T10:16:12.548Z,39.55
2023-05-09T10:17:12.462Z,37.13
2023-05-09T10:18:12.473Z,37.84
2023-05-09T10:19:12.369Z,37.62
2023-05-09T10:20:12.541Z,36.81
2023-05-09T10:21:12.356Z,37.11
2023-05-09T10:22:12.357Z,39.73
2023-05-09T10:23:12.347Z,37.62
2023-05-09T10:24:12.361Z,37.19
2023-05-09T10:25:12.360Z,38.60
2023-05-09T10:26:12.318Z,36.91
2023-05-09T10:27:12.334Z,37.71
2023-05-09T10:28:12.320Z,38.93
2023-05-09T10:29:12.316Z,37.01
2023-05-09T10:30:12.308Z,37.62
2023-05-09T10:31:12.326Z,39.53
2023-05-09T10:32:12.386Z,38.42
2023-05-09T10:33:12.382Z,36.79
2023-05-09T10:34:12.289Z,37.80
2023-05-09T10:35:12.433Z,36.99
2023-05-09T10:36:12.281Z,37.31
2023-05-09T10:37:12.273Z,37.31
2023-05-09T10:38:12.274Z,37.71
2023-05-09T10:39:12.269Z,37.60
2023-05-09T10:40:12.269Z,36.91
2023-05-09T10:41:12.268Z,38.12
2023-05-09T10:42:12.259Z,37.92
2023-05-09T10:43:12.258Z,37.62
2023-05-09T10:44:12.247Z,36.51
2023-05-09T10:45:12.257Z,37.09
2023-05-09T10:46:12.302Z,34.99
2023-05-09T10:47:12.240Z,35.70
2023-05-09T10:48:12.318Z,36.10
2023-05-09T10:49:12.231Z,36.10
2023-05-09T10:50:12.223Z,35.90
2023-05-09T10:51:12.218Z,34.57
2023-05-09T10:52:12.214Z,36.10
2023-05-09T10:53:12.211Z,37.29
2023-05-09T10:54:12.208Z,36.59
2023-05-09T10:55:12.228Z,37.78
2023-05-09T10:56:12.202Z,35.55
2023-05-09T10:57:12.194Z,35.45
2023-05-09T10:58:12.191Z,35.97
2023-05-09T10:59:12.188Z,35.95
2023-05-09T11:00:12.190Z,35.35
2023-05-09T11:01:12.203Z,34.92
2023-05-09T11:02:12.175Z,35.63
2023-05-09T11:03:12.270Z,35.14
2023-05-09T11:04:12.254Z,34.74
2023-05-09T11:05:12.264Z,36.25
2023-05-09T11:06:12.156Z,34.92
2023-05-09T11:07:12.156Z,34.32
2023-05-09T11:08:12.158Z,36.13
2023-05-09T11:09:12.156Z,33.72
2023-05-09T11:10:12.146Z,36.33
2023-05-09T11:11:12.142Z,34.42
2023-05-09T11:12:12.155Z,33.84
2023-05-09T11:13:12.198Z,36.44
2023-05-09T11:14:12.150Z,36.13
2023-05-09T11:15:12.174Z,34.81
2023-05-09T11:16:12.256Z,35.51
2023-05-09T11:17:12.121Z,35.61
2023-05-09T11:18:12.140Z,34.71
2023-05-09T11:19:12.114Z,34.31
2023-05-09T11:20:12.204Z,34.02
2023-05-09T11:21:12.106Z,35.86
2023-05-09T11:22:12.106Z,37.87
2023-05-09T11:23:12.156Z,35.35
2023-05-09T11:24:12.098Z,35.73
2023-05-09T11:25:12.201Z,36.92
2023-05-09T11:26:12.091Z,34.81
2023-05-09T11:27:12.087Z,35.51
2023-05-09T11:28:12.116Z,35.71
2023-05-09T11:29:12.082Z,35.41
2023-05-09T11:30:12.080Z,35.73
2023-05-09T11:31:12.095Z,35.41
2023-05-09T11:32:12.161Z,35.21
2023-05-09T11:33:12.092Z,36.10
2023-05-09T11:34:12.061Z,33.48
2023-05-09T11:35:12.239Z,32.38
2023-05-09T11:36:12.157Z,35.70
2023-05-09T11:37:12.052Z,33.08
2023-05-09T11:38:12.056Z,33.59
2023-05-09T11:39:12.057Z,34.39
2023-05-09T11:40:12.070Z,32.58
2023-05-09T11:41:12.042Z,35.19
2023-05-09T11:42:12.036Z,35.82
2023-05-09T11:43:12.035Z,34.92
2023-05-09T11:44:12.031Z,35.91
2023-05-09T11:45:12.167Z,33.62
2023-05-09T11:46:12.054Z,34.54
2023-05-09T11:47:12.018Z,34.54
2023-05-09T11:48:12.014Z,35.93
2023-05-09T11:49:12.422Z,34.52
2023-05-09T11:50:12.018Z,34.72
2023-05-09T11:51:12.000Z,33.70
2023-05-09T11:52:12.089Z,33.60
2023-05-09T11:53:11.994Z,34.81
2023-05-09T11:54:11.998Z,35.21
2023-05-09T11:55:12.844Z,34.99
2023-05-09T11:56:11.988Z,34.19
2023-05-09T11:57:11.978Z,34.19
2023-05-09T11:58:11.975Z,34.31
2023-05-09T11:59:11.971Z,33.28
2023-05-09T12:00:11.971Z,35.21
2023-05-09T12:01:12.369Z,35.39
2023-05-09T12:02:12.003Z,32.56
2023-05-09T12:03:12.077Z,34.78
2023-05-09T12:04:11.985Z,34.38
2023-05-09T12:05:12.019Z,33.07
2023-05-09T12:06:11.949Z,33.77
2023-05-09T12:07:11.941Z,33.08
2023-05-09T12:08:12.054Z,31.98
2023-05-09T12:09:11.969Z,32.78
2023-05-09T12:10:11.935Z,35.10
2023-05-09T12:11:11.930Z,34.27
2023-05-09T12:12:11.927Z,34.69
2023-05-09T12:13:12.022Z,35.48
2023-05-09T12:14:11.921Z,33.97
2023-05-09T12:15:11.921Z,32.76
2023-05-09T12:16:11.923Z,34.38
2023-05-09T12:17:11.910Z,35.28
2023-05-09T12:18:11.928Z,35.88
2023-05-09T12:19:11.908Z,34.96
2023-05-09T12:20:11.904Z,31.46
2023-05-09T12:21:11.898Z,33.57
2023-05-09T12:22:11.903Z,33.28
2023-05-09T12:23:11.897Z,33.89
2023-05-09T12:24:11.967Z,34.42
2023-05-09T12:25:11.957Z,34.71
2023-05-09T12:26:11.886Z,34.29
2023-05-09T12:27:11.879Z,33.48
2023-05-09T12:28:11.873Z,35.58
2023-05-09T12:29:11.870Z,33.97
2023-05-09T12:30:11.872Z,34.47
2023-05-09T12:31:11.908Z,33.77
2023-05-09T12:32:11.871Z,32.17
2023-05-09T12:33:11.862Z,33.27
2023-05-09T12:34:11.853Z,33.75
2023-05-09T12:35:11.860Z,34.06
2023-05-09T12:36:11.860Z,32.75
2023-05-09T12:37:11.848Z,34.06
2023-05-09T12:38:11.839Z,33.95
2023-05-09T12:39:11.835Z,32.45
2023-05-09T12:40:12.022Z,31.16
2023-05-09T12:41:22.454Z,33.89
2023-05-09T12:42:11.831Z,35.19
2023-05-09T12:43:11.822Z,32.76
2023-05-09T12:44:11.818Z,33.75
2023-05-09T12:45:11.846Z,32.17
2023-05-09T12:46:11.814Z,32.36
2023-05-09T12:47:11.861Z,33.27
2023-05-09T12:48:11.863Z,33.47
2023-05-09T12:49:11.802Z,32.46
2023-05-09T12:50:11.797Z,34.56
2023-05-09T12:51:11.802Z,33.97
2023-05-09T12:52:11.793Z,33.25